Silly, Belgium
Current Conditions -  °F | °C
As of 11:25 AM on Friday 28 Nov 2014 (Local Time) from EBCV Reporting Station
Few Clouds Few Clouds  
Wind Chill: 54°   Ceiling: Unl
Heat Index: 54°   Visibility: 6mi
Dew Point: 46°   Wind: 8mph
Humidity: 77%   Direction: 120°ESE
Pressure: 29.65"   Gusts: NA
Location:  50.65°N, 3.92°E
Report Text: EBCV 281025Z AUTO 12007KT 9999 FEW085/// 12/08 Q1004 BLU
Loading
Personal Weather Stations






























Interactive Weather Map New forecast layout! Learn more

10-Day Weather Forecast

Advertisements
Track Severe Weather on mobile